Time;durP1;ratioP1;P1;durP2;ratioP2;P2;SDS_P1;SDS_P2;PMS_P1;PMS_P2;Temp;Humidity;BMP_temperature;BMP_pressure;BME280_temperature;BME280_humidity;BME280_pressure;Samples;Min_cycle;Max_cycle;Signal;HPM_P1;HPM_P2
2022/02/28 00:01:47;;;;;;;15.23;6.40;;;;;;;1.24;50.62;102350.88;1700757;83;27475;-58
2022/02/28 00:04:14;;;;;;;13.72;5.67;;;;;;;1.21;50.77;102345.64;1700970;82;25956;-58
2022/02/28 00:06:41;;;;;;;9.90;5.65;;;;;;;1.18;51.03;102343.94;1721098;81;25517;-58
2022/02/28 00:09:08;;;;;;;13.00;6.35;;;;;;;1.13;50.98;102347.14;1753051;81;26109;-58
2022/02/28 00:11:35;;;;;;;13.95;5.95;;;;;;;1.09;51.00;102342.37;1710598;83;25968;-58
2022/02/28 00:14:02;;;;;;;13.38;6.30;;;;;;;1.08;51.04;102345.06;1752900;81;28162;-58
2022/02/28 00:16:30;;;;;;;12.75;5.92;;;;;;;1.05;51.25;102348.66;1752953;81;25639;-58
2022/02/28 00:18:57;;;;;;;13.78;5.83;;;;;;;1.01;51.32;102346.98;1753161;81;25718;-58
2022/02/28 00:21:24;;;;;;;13.88;5.45;;;;;;;0.99;51.44;102343.95;1753017;81;26118;-58
2022/02/28 00:23:51;;;;;;;17.85;7.72;;;;;;;0.96;51.36;102348.87;1724563;81;25690;-57
2022/02/28 00:26:18;;;;;;;14.33;6.00;;;;;;;0.96;51.43;102340.03;1711209;83;27483;-58
2022/02/28 00:28:46;;;;;;;17.40;6.20;;;;;;;0.94;51.54;102346.23;1711119;83;25905;-57
2022/02/28 00:31:14;;;;;;;10.80;5.47;;;;;;;0.93;51.36;102348.50;1722134;82;25660;-58
2022/02/28 00:33:41;;;;;;;14.73;6.40;;;;;;;0.90;51.60;102348.56;1722653;83;26092;-57
2022/02/28 00:36:08;;;;;;;18.27;6.35;;;;;;;0.85;51.53;102351.74;1723317;83;25688;-57
2022/02/28 00:38:35;;;;;;;13.72;6.22;;;;;;;0.86;51.39;102350.84;1726168;81;27469;-59
2022/02/28 00:41:03;;;;;;;14.35;5.10;;;;;;;0.88;51.40;102349.04;1752625;81;26057;-57
2022/02/28 00:43:30;;;;;;;16.50;5.17;;;;;;;0.89;51.13;102353.44;1752761;81;25451;-57
2022/02/28 00:45:57;;;;;;;13.22;5.75;;;;;;;0.88;51.16;102341.09;1752882;81;26008;-58
2022/02/28 00:48:24;;;;;;;12.40;4.87;;;;;;;0.86;51.08;102342.03;1709813;83;25808;-58
2022/02/28 00:50:52;;;;;;;11.50;5.22;;;;;;;0.81;50.93;102340.81;1710811;83;27464;-58
2022/02/28 00:53:19;;;;;;;12.15;5.42;;;;;;;0.84;51.45;102324.86;1752454;81;25517;-57
2022/02/28 00:55:48;;;;;;;14.80;5.50;;;;;;;0.86;51.61;102325.67;1710984;83;25545;-57
2022/02/28 00:58:15;;;;;;;13.98;6.08;;;;;;;0.84;51.78;102322.20;1752924;81;26080;-58
2022/02/28 01:00:42;;;;;;;11.00;5.78;;;;;;;0.80;51.62;102320.52;1752641;81;25522;-58
2022/02/28 01:03:09;;;;;;;21.95;7.30;;;;;;;0.78;52.39;102319.67;1753010;81;27493;-58
2022/02/28 01:05:36;;;;;;;18.42;6.60;;;;;;;0.80;51.99;102326.29;1752810;81;26600;-58
2022/02/28 01:08:04;;;;;;;14.00;6.05;;;;;;;0.81;52.37;102335.52;1752909;81;25717;-58
2022/02/28 01:10:31;;;;;;;14.33;5.80;;;;;;;0.80;52.15;102331.12;1753525;81;26698;-58
2022/02/28 01:12:58;;;;;;;11.68;6.05;;;;;;;0.83;52.18;102336.80;1753451;80;25755;-59
2022/02/28 01:15:26;;;;;;;12.85;5.70;;;;;;;0.87;52.16;102341.99;1753167;81;27446;-57
2022/02/28 01:17:53;;;;;;;16.37;6.28;;;;;;;0.89;52.23;102340.19;1710105;83;25832;-57
2022/02/28 01:20:20;;;;;;;12.53;6.05;;;;;;;0.92;51.97;102341.45;1753328;81;25789;-58
2022/02/28 01:22:48;;;;;;;17.35;5.92;;;;;;;0.96;51.82;102332.97;1752472;81;26284;-57
2022/02/28 01:25:15;;;;;;;14.40;7.15;;;;;;;0.99;51.89;102330.70;1752945;81;25925;-57
2022/02/28 01:27:42;;;;;;;12.82;6.15;;;;;;;1.01;51.85;102330.22;1752872;81;27400;-58
2022/02/28 01:30:11;;;;;;;11.80;6.58;;;;;;;0.99;51.71;102330.23;1729357;81;25810;-58
2022/02/28 01:32:38;;;;;;;15.43;6.30;;;;;;;0.96;52.03;102328.11;1708528;84;25925;-57
2022/02/28 01:35:09;;;;;;;13.55;5.92;;;;;;;0.94;51.93;102326.36;1708821;84;26084;-58
2022/02/28 01:37:37;;;;;;;15.50;6.30;;;;;;;0.96;51.91;102328.11;1708562;84;25985;-58
2022/02/28 01:40:07;;;;;;;12.10;5.65;;;;;;;0.97;51.87;102331.19;1741226;81;27449;-58
2022/02/28 01:42:36;;;;;;;11.73;5.90;;;;;;;0.98;51.83;102325.88;1752788;81;25651;-58
2022/02/28 01:45:06;;;;;;;14.87;6.08;;;;;;;1.04;51.87;102320.41;1711176;82;25725;-58
2022/02/28 01:47:35;;;;;;;10.88;5.53;;;;;;;1.07;51.82;102319.46;1710794;83;26329;-58
2022/02/28 01:50:03;;;;;;;10.48;5.78;;;;;;;1.07;51.73;102318.14;1711266;83;26201;-58
2022/02/28 01:52:30;;;;;;;11.18;5.35;;;;;;;1.08;51.72;102316.77;1710533;83;27462;-59
2022/02/28 01:54:57;;;;;;;15.18;6.40;;;;;;;1.10;51.78;102312.77;1711182;83;25844;-60
2022/02/28 01:57:24;;;;;;;20.20;6.83;;;;;;;1.13;51.75;102308.70;1712203;82;26329;-59
2022/02/28 01:59:51;;;;;;;16.95;6.30;;;;;;;1.15;51.60;102314.84;1711576;83;26119;-58
2022/02/28 02:02:19;;;;;;;15.18;7.03;;;;;;;1.18;51.55;102304.17;1752939;81;25873;-58
2022/02/28 02:04:46;;;;;;;13.50;5.62;;;;;;;1.19;51.46;102304.59;1752807;81;27531;-58
2022/02/28 02:07:13;;;;;;;14.07;5.97;;;;;;;1.19;51.48;102302.38;1710609;82;25734;-58
2022/02/28 02:09:40;;;;;;;19.67;6.78;;;;;;;1.16;51.42;102302.02;1752712;81;25779;-58
2022/02/28 02:12:09;;;;;;;18.23;6.62;;;;;;;1.16;51.53;102306.45;1711804;83;26448;-58
2022/02/28 02:14:37;;;;;;;11.53;6.00;;;;;;;1.15;51.55;102302.06;1710900;83;25796;-58
2022/02/28 02:17:03;;;;;;;15.23;5.58;;;;;;;1.12;51.69;102298.15;1711070;83;27474;-59
2022/02/28 02:19:33;;;;;;;13.83;5.55;;;;;;;1.09;51.88;102302.61;1752523;81;25932;-56
2022/02/28 02:22:00;;;;;;;12.25;4.45;;;;;;;1.05;51.91;102293.44;1731952;81;25726;-58
2022/02/28 02:24:27;;;;;;;10.82;5.55;;;;;;;1.03;52.46;102295.28;1752734;81;26118;-57
2022/02/28 02:26:54;;;;;;;16.07;5.08;;;;;;;1.00;52.11;102301.50;1753211;81;25886;-58
2022/02/28 02:29:22;;;;;;;16.82;6.90;;;;;;;0.99;52.34;102301.55;1744121;81;27480;-58
2022/02/28 02:31:49;;;;;;;15.05;5.50;;;;;;;0.96;53.29;102294.55;1708892;84;26476;-58
2022/02/28 02:34:16;;;;;;;12.03;5.47;;;;;;;0.87;53.50;102300.92;1708496;84;25663;-58
2022/02/28 02:36:42;;;;;;;11.53;5.70;;;;;;;0.80;53.61;102301.13;1708872;84;26007;-59
2022/02/28 02:39:10;;;;;;;17.75;6.35;;;;;;;0.75;53.72;102301.23;1724206;81;25892;-58
2022/02/28 02:41:37;;;;;;;12.15;5.72;;;;;;;0.75;54.14;102305.20;1753242;81;27490;-58
2022/02/28 02:44:05;;;;;;;14.50;5.45;;;;;;;0.70;54.42;102305.30;1711354;83;25754;-60
2022/02/28 02:46:32;;;;;;;16.48;5.75;;;;;;;0.68;54.00;102303.56;1752766;81;26134;-59
2022/02/28 02:49:04;;;;;;;17.20;6.70;;;;;;;0.66;54.31;102304.08;1711638;82;26478;-58
2022/02/28 02:51:31;;;;;;;13.05;4.70;;;;;;;0.62;54.37;102302.81;1711305;83;25736;-58
2022/02/28 02:53:59;;;;;;;12.28;5.55;;;;;;;0.60;54.62;102301.11;1711291;83;27488;-59
2022/02/28 02:56:27;;;;;;;17.85;5.55;;;;;;;0.59;54.69;102306.84;1752622;81;25703;-58
2022/02/28 02:58:54;;;;;;;13.53;5.85;;;;;;;0.59;54.85;102308.17;1752756;81;25657;-58
2022/02/28 03:01:21;;;;;;;14.58;4.95;;;;;;;0.62;54.79;102305.46;1732074;81;26078;-59
2022/02/28 03:03:48;;;;;;;12.85;5.03;;;;;;;0.60;54.58;102313.03;1753250;81;25692;-59
2022/02/28 03:06:15;;;;;;;11.48;5.10;;;;;;;0.61;54.78;102310.80;1752913;81;29617;-59
2022/02/28 03:08:42;;;;;;;11.40;5.08;;;;;;;0.61;54.79;102314.31;1750701;81;25928;-58
2022/02/28 03:11:09;;;;;;;14.43;4.92;;;;;;;0.59;54.88;102316.11;1751080;81;25747;-58
2022/02/28 03:13:36;;;;;;;21.65;6.70;;;;;;;0.58;55.18;102313.05;1751252;80;27057;-58
2022/02/28 03:16:04;;;;;;;12.47;5.47;;;;;;;0.57;55.06;102317.05;1751002;80;25759;-58
2022/02/28 03:18:33;;;;;;;12.98;5.75;;;;;;;0.57;54.99;102320.59;1750365;81;28176;-58
2022/02/28 03:21:01;;;;;;;12.73;5.37;;;;;;;0.58;55.12;102322.31;1705602;83;25765;-58
2022/02/28 03:23:28;;;;;;;8.88;4.65;;;;;;;0.59;55.00;102319.23;1750905;81;25743;-58
2022/02/28 03:25:57;;;;;;;21.33;4.47;;;;;;;0.61;55.02;102322.72;1750468;81;26164;-59
2022/02/28 03:28:25;;;;;;;18.07;4.58;;;;;;;0.59;54.87;102320.55;1705401;83;25739;-58
2022/02/28 03:30:52;;;;;;;10.53;3.87;;;;;;;0.58;55.01;102314.36;1755825;81;27460;-58
2022/02/28 03:33:21;;;;;;;19.17;5.00;;;;;;;0.60;54.93;102318.33;1757039;81;25758;-58
2022/02/28 03:35:48;;;;;;;13.50;5.03;;;;;;;0.56;55.16;102318.84;1757307;81;25752;-58
2022/02/28 03:38:14;;;;;;;10.93;4.67;;;;;;;0.55;55.15;102313.56;1757177;81;26091;-58
2022/02/28 03:40:44;;;;;;;10.70;4.65;;;;;;;0.55;55.42;102316.21;1759864;81;25790;-59
2022/02/28 03:43:12;;;;;;;11.97;4.53;;;;;;;0.53;55.45;102314.94;1759925;81;27490;-59
2022/02/28 03:45:46;;;;;;;14.18;5.08;;;;;;;0.52;55.53;102315.83;1753695;81;25454;-59
2022/02/28 03:48:14;;;;;;;10.13;4.87;;;;;;;0.52;55.61;102313.19;1755711;81;25489;-59
2022/02/28 03:50:49;;;;;;;19.35;5.20;;;;;;;0.51;55.49;102307.47;1755535;81;26126;-59
2022/02/28 03:53:16;;;;;;;9.88;4.10;;;;;;;0.53;55.32;102308.31;1756253;80;25727;-59
2022/02/28 03:55:43;;;;;;;12.20;3.92;;;;;;;0.53;55.36;102316.25;1759622;80;27533;-59
2022/02/28 03:58:10;;;;;;;11.08;4.28;;;;;;;0.55;55.37;102313.56;1756212;80;25758;-59
2022/02/28 04:00:37;;;;;;;8.60;3.87;;;;;;;0.53;55.36;102316.72;1755602;80;25716;-60
2022/02/28 04:03:06;;;;;;;12.43;4.50;;;;;;;0.53;55.41;102321.55;1755954;80;26180;-59
2022/02/28 04:05:35;;;;;;;10.38;4.30;;;;;;;0.57;55.28;102325.00;1756252;80;25467;-59
2022/02/28 04:08:02;;;;;;;8.48;3.83;;;;;;;0.55;55.35;102317.53;1756440;80;27451;-58
2022/02/28 04:10:29;;;;;;;8.83;3.40;;;;;;;0.56;55.29;102325.91;1755669;81;25692;-58
2022/02/28 04:12:56;;;;;;;9.05;3.45;;;;;;;0.57;55.25;102324.56;1755854;80;25672;-57
2022/02/28 04:15:23;;;;;;;10.38;3.02;;;;;;;0.58;55.13;102320.12;1756049;80;25735;-57
2022/02/28 04:17:50;;;;;;;11.05;3.72;;;;;;;0.59;55.25;102324.52;1756748;80;25536;-58
2022/02/28 04:20:17;;;;;;;9.70;3.27;;;;;;;0.58;55.13;102318.34;1758168;80;27482;-58
2022/02/28 04:22:45;;;;;;;9.53;2.70;;;;;;;0.59;55.27;102313.47;1756206;80;25664;-58
2022/02/28 04:25:13;;;;;;;11.93;3.45;;;;;;;0.61;55.32;102310.34;1755590;80;25867;-58
2022/02/28 04:27:40;;;;;;;9.95;4.05;;;;;;;0.61;55.12;102323.58;1755970;80;26050;-58
2022/02/28 04:30:11;;;;;;;7.40;3.37;;;;;;;0.62;55.11;102321.82;1753938;80;25741;-58
2022/02/28 04:32:39;;;;;;;15.08;4.25;;;;;;;0.64;55.06;102328.40;1759983;81;27435;-59
2022/02/28 04:35:08;;;;;;;11.85;4.12;;;;;;;0.59;55.11;102326.70;1759925;81;26097;-59
2022/02/28 04:37:37;;;;;;;8.58;3.65;;;;;;;0.58;55.28;102320.98;1759822;81;25902;-58
2022/02/28 04:40:07;;;;;;;10.53;3.27;;;;;;;0.56;55.33;102324.14;1761406;81;26147;-58
2022/02/28 04:42:35;;;;;;;9.58;3.77;;;;;;;0.56;55.51;102328.55;1762645;80;26586;-57
2022/02/28 04:45:05;;;;;;;8.83;4.55;;;;;;;0.55;55.62;102339.61;1762000;81;27484;-59
2022/02/28 04:47:32;;;;;;;8.40;3.87;;;;;;;0.55;55.73;102340.05;1762300;81;25775;-57
2022/02/28 04:50:01;;;;;;;9.25;3.77;;;;;;;0.52;55.78;102344.96;1761569;81;26325;-58
2022/02/28 04:52:29;;;;;;;12.05;4.58;;;;;;;0.53;55.61;102337.91;1762627;80;26054;-57
2022/02/28 04:54:56;;;;;;;14.98;3.67;;;;;;;0.52;55.80;102344.11;1762069;81;25707;-58
2022/02/28 04:57:22;;;;;;;8.00;3.30;;;;;;;0.50;55.97;102345.91;1762351;81;27470;-58
2022/02/28 04:59:50;;;;;;;9.18;3.58;;;;;;;0.50;55.95;102344.12;1761755;80;26386;-58
2022/02/28 05:02:18;;;;;;;19.70;9.10;;;;;;;0.49;56.02;102359.61;1761941;80;25774;-57
2022/02/28 05:04:49;;;;;;;24.02;10.65;;;;;;;0.48;55.88;102350.35;1762629;79;26121;-57
2022/02/28 05:07:17;;;;;;;11.20;3.80;;;;;;;0.50;55.92;102355.17;1761290;81;25818;-58
2022/02/28 05:09:44;;;;;;;6.85;3.90;;;;;;;0.52;55.85;102361.31;1743599;80;27657;-57
2022/02/28 05:12:11;;;;;;;12.33;3.70;;;;;;;0.51;55.88;102361.75;1741678;82;25482;-57
2022/02/28 05:14:38;;;;;;;9.53;3.58;;;;;;;0.51;55.71;102360.42;1741381;82;25726;-57
2022/02/28 05:17:06;;;;;;;10.88;4.10;;;;;;;0.54;56.09;102371.44;1741449;82;26294;-58
2022/02/28 05:19:35;;;;;;;6.37;3.30;;;;;;;0.53;55.94;102376.31;1741520;82;26058;-57
2022/02/28 05:22:04;;;;;;;9.50;3.95;;;;;;;0.55;56.00;102371.83;1741462;81;27439;-59
2022/02/28 05:24:34;;;;;;;8.30;3.33;;;;;;;0.54;56.06;102371.44;1741756;82;26314;-58
2022/02/28 05:27:02;;;;;;;19.67;5.83;;;;;;;0.52;55.95;102379.39;1741487;81;25801;-59
2022/02/28 05:29:28;;;;;;;9.03;3.98;;;;;;;0.55;56.21;102378.45;1739766;81;26049;-58
2022/02/28 05:31:56;;;;;;;11.93;4.08;;;;;;;0.57;55.94;102380.19;1733449;82;25692;-58
2022/02/28 05:34:43;;;;;;;11.10;4.53;;;;;;;0.59;55.83;102391.59;1710075;82;27523;-58
2022/02/28 05:37:12;;;;;;;6.95;4.55;;;;;;;0.62;55.79;102388.89;1734568;81;25864;-57
2022/02/28 05:39:40;;;;;;;9.70;4.45;;;;;;;0.64;55.73;102390.64;1734237;82;25809;-57
2022/02/28 05:42:08;;;;;;;9.70;4.37;;;;;;;0.65;55.70;102398.55;1735719;82;26169;-58
2022/02/28 05:44:36;;;;;;;8.45;4.33;;;;;;;0.65;55.63;102395.04;1735790;82;25709;-58
2022/02/28 05:47:04;;;;;;;8.30;3.80;;;;;;;0.64;55.82;102390.64;1733292;82;27441;-57
2022/02/28 05:49:33;;;;;;;7.20;3.75;;;;;;;0.62;55.74;102392.00;1733007;82;25851;-57
2022/02/28 05:52:00;;;;;;;16.55;4.75;;;;;;;0.64;55.74;102391.97;1733228;82;25741;-58
2022/02/28 05:54:27;;;;;;;21.05;7.17;;;;;;;0.62;56.02;102395.52;1733166;82;26098;-58
2022/02/28 05:56:54;;;;;;;16.42;4.65;;;;;;;0.65;55.89;102404.30;1733307;82;25762;-58
2022/02/28 05:59:20;;;;;;;15.55;4.40;;;;;;;0.68;55.63;102399.81;1733233;82;27545;-58
2022/02/28 06:01:47;;;;;;;18.17;3.95;;;;;;;0.70;55.36;102396.69;1733191;82;25799;-58
2022/02/28 06:04:14;;;;;;;10.32;5.05;;;;;;;0.76;55.69;102406.29;1733151;82;25708;-57
2022/02/28 06:06:41;;;;;;;19.55;4.15;;;;;;;0.80;55.30;102409.27;1733495;82;26092;-58
2022/02/28 06:09:08;;;;;;;20.25;4.45;;;;;;;0.88;55.24;102418.39;1732418;81;25941;-58
2022/02/28 06:11:36;;;;;;;11.75;4.05;;;;;;;0.92;54.91;102414.76;1732970;82;28170;-58
2022/02/28 06:14:03;;;;;;;8.98;4.92;;;;;;;0.94;54.86;102428.85;1733155;82;25730;-58
2022/02/28 06:16:30;;;;;;;8.35;3.35;;;;;;;1.01;54.89;102426.95;1733136;82;25665;-58
2022/02/28 06:18:57;;;;;;;15.23;4.33;;;;;;;1.06;54.30;102430.36;1733167;82;26087;-59
2022/02/28 06:21:24;;;;;;;17.25;4.58;;;;;;;1.05;54.28;102431.27;1733392;82;25851;-57
2022/02/28 06:23:51;;;;;;;16.75;4.35;;;;;;;1.08;54.52;102420.60;1733375;82;27463;-57
2022/02/28 06:26:19;;;;;;;17.00;3.67;;;;;;;1.12;54.33;102424.91;1733299;81;25736;-57
2022/02/28 06:28:46;;;;;;;8.68;3.42;;;;;;;1.15;54.31;102419.55;1733617;82;25818;-57
2022/02/28 06:31:13;;;;;;;7.83;3.62;;;;;;;1.15;54.18;102410.27;1739857;82;26103;-58
2022/02/28 06:33:40;;;;;;;14.75;4.47;;;;;;;1.14;54.33;102410.32;1740297;82;25472;-58
2022/02/28 06:36:07;;;;;;;11.50;5.58;;;;;;;1.19;54.13;102418.59;1740164;82;27502;-58
2022/02/28 06:38:35;;;;;;;10.82;3.70;;;;;;;1.18;54.10;102417.28;1740325;81;26055;-58
2022/02/28 06:41:02;;;;;;;14.55;4.00;;;;;;;1.21;54.18;102420.73;1741167;82;25681;-58
2022/02/28 06:43:29;;;;;;;12.03;4.83;;;;;;;1.25;53.96;102429.52;1741403;82;26130;-58
2022/02/28 06:45:56;;;;;;;8.68;3.70;;;;;;;1.27;54.00;102419.72;1738235;82;26487;-60
2022/02/28 06:48:23;;;;;;;13.03;3.85;;;;;;;1.32;54.04;102420.94;1735497;82;27876;-58
2022/02/28 06:50:51;;;;;;;16.37;4.12;;;;;;;1.35;53.74;102423.06;1735549;82;25846;-58
2022/02/28 06:53:23;;;;;;;12.80;4.62;;;;;;;1.42;53.72;102424.27;1735940;82;25758;-58
2022/02/28 06:55:53;;;;;;;14.18;4.33;;;;;;;1.44;53.60;102437.02;1735352;82;26092;-59
2022/02/28 06:58:23;;;;;;;10.93;5.03;;;;;;;1.50;53.40;102443.52;1735568;82;26976;-57
2022/02/28 07:00:52;;;;;;;8.25;4.87;;;;;;;1.53;53.45;102439.45;1735594;82;28443;-57
2022/02/28 07:03:39;;;;;;;14.35;4.87;;;;;;;1.62;53.18;102450.31;1735307;82;26077;-57
2022/02/28 07:06:06;;;;;;;9.13;4.65;;;;;;;1.68;52.98;102442.20;1735315;82;25523;-57
2022/02/28 07:08:35;;;;;;;12.82;5.20;;;;;;;1.76;52.63;102452.63;1735776;82;26204;-57
2022/02/28 07:11:02;;;;;;;8.83;4.50;;;;;;;1.74;52.68;102440.73;1735716;82;25799;-58
2022/02/28 07:13:30;;;;;;;13.22;4.42;;;;;;;1.80;52.67;102437.03;1735793;82;28714;-58
2022/02/28 07:15:57;;;;;;;9.53;4.55;;;;;;;1.80;52.54;102441.02;1715970;82;25818;-57
2022/02/28 07:18:25;;;;;;;8.40;4.42;;;;;;;1.84;52.54;102432.94;1736022;82;25883;-57
2022/02/28 07:20:52;;;;;;;23.52;5.12;;;;;;;1.89;52.47;102432.82;1735725;82;26946;-57
2022/02/28 07:23:19;;;;;;;10.32;4.30;;;;;;;1.97;51.89;102431.31;1736165;82;25533;-58
2022/02/28 07:25:45;;;;;;;19.50;4.53;;;;;;;2.01;51.71;102425.88;1735869;82;27498;-59
2022/02/28 07:28:12;;;;;;;12.50;4.17;;;;;;;2.08;51.65;102424.38;1735930;82;25773;-58
2022/02/28 07:30:39;;;;;;;13.72;4.75;;;;;;;2.11;50.85;102426.50;1749514;81;25658;-58
2022/02/28 07:33:06;;;;;;;10.03;4.90;;;;;;;2.11;50.90;102423.84;1754757;81;26080;-57
2022/02/28 07:35:33;;;;;;;10.30;4.90;;;;;;;2.19;50.39;102424.98;1754681;81;25732;-58
2022/02/28 07:38:00;;;;;;;12.25;4.92;;;;;;;2.26;50.44;102423.03;1754815;80;27840;-58
2022/02/28 07:40:27;;;;;;;13.45;4.00;;;;;;;2.32;50.12;102428.17;1742931;81;26552;-57
2022/02/28 07:42:53;;;;;;;12.80;4.60;;;;;;;2.37;50.04;102424.06;1741443;82;25792;-57
2022/02/28 07:45:22;;;;;;;12.47;4.83;;;;;;;2.42;49.99;102427.02;1739716;82;26109;-57
2022/02/28 07:47:49;;;;;;;10.38;4.42;;;;;;;2.47;50.01;102422.90;1735673;82;25798;-58
2022/02/28 07:50:16;;;;;;;15.68;5.22;;;;;;;2.58;49.79;102426.57;1735846;82;28093;-58
2022/02/28 07:52:44;;;;;;;10.50;4.40;;;;;;;2.66;49.73;102425.89;1735389;82;25696;-57
2022/02/28 07:55:11;;;;;;;11.35;4.87;;;;;;;2.76;49.49;102430.50;1736173;82;25679;-57
2022/02/28 07:57:38;;;;;;;10.80;4.90;;;;;;;2.84;49.32;102431.59;1735655;82;26100;-57
2022/02/28 08:00:08;;;;;;;9.70;5.03;;;;;;;2.97;49.10;102441.81;1736105;82;25697;-57
2022/02/28 08:02:41;;;;;;;9.20;4.33;;;;;;;3.08;48.53;102433.53;1735692;82;28324;-58
2022/02/28 08:05:09;;;;;;;17.02;4.50;;;;;;;3.19;47.95;102429.65;1735325;82;25806;-57
2022/02/28 08:07:41;;;;;;;14.43;4.22;;;;;;;3.31;47.57;102423.11;1735767;82;25537;-58
2022/02/28 08:10:09;;;;;;;13.95;4.17;;;;;;;3.45;47.51;102425.70;1743576;81;26797;-57
2022/02/28 08:12:36;;;;;;;14.30;4.37;;;;;;;3.60;47.33;102428.81;1750853;81;25672;-57
2022/02/28 08:15:05;;;;;;;11.08;4.17;;;;;;;3.76;45.93;102421.20;1751520;80;27494;-57
2022/02/28 08:17:32;;;;;;;7.75;4.30;;;;;;;3.85;45.51;102422.23;1705147;82;25758;-57
2022/02/28 08:19:59;;;;;;;16.57;4.42;;;;;;;3.93;45.75;102418.42;1751190;80;25763;-57
2022/02/28 08:22:26;;;;;;;14.87;4.50;;;;;;;3.98;45.15;102419.13;1751125;81;26807;-57
2022/02/28 08:24:53;;;;;;;11.55;3.90;;;;;;;3.92;44.40;102421.53;1750706;80;26002;-57
2022/02/28 08:27:20;;;;;;;9.18;4.12;;;;;;;3.79;44.64;102427.73;1750658;80;28135;-57
2022/02/28 08:29:48;;;;;;;10.58;4.22;;;;;;;3.66;45.33;102419.77;1753812;80;25821;-58
2022/02/28 08:32:15;;;;;;;13.55;3.77;;;;;;;3.62;45.10;102412.78;1757533;80;25729;-58
2022/02/28 08:34:42;;;;;;;18.25;5.00;;;;;;;3.53;45.65;102422.81;1757338;81;26109;-58
2022/02/28 08:37:09;;;;;;;8.80;4.35;;;;;;;3.51;45.43;102416.66;1757683;81;25706;-59
2022/02/28 08:39:36;;;;;;;16.12;5.20;;;;;;;3.49;45.14;102418.97;1758633;81;28167;-58
2022/02/28 08:42:04;;;;;;;24.30;6.90;;;;;;;3.40;45.57;102413.03;1760056;81;25481;-58
2022/02/28 08:44:32;;;;;;;14.50;6.00;;;;;;;3.34;45.53;102419.88;1759929;81;25941;-60
2022/02/28 08:46:58;;;;;;;12.25;4.65;;;;;;;3.34;45.49;102425.20;1759811;81;26137;-58
2022/02/28 08:49:25;;;;;;;11.10;3.90;;;;;;;3.37;44.41;102422.42;1760283;81;26357;-59
2022/02/28 08:51:54;;;;;;;14.95;2.92;;;;;;;3.39;44.27;102410.42;1760000;81;27467;-58
2022/02/28 08:54:22;;;;;;;7.72;2.80;;;;;;;3.43;44.40;102416.05;1759934;81;25659;-58
2022/02/28 08:56:49;;;;;;;8.03;3.08;;;;;;;3.47;44.51;102414.16;1759744;81;25830;-58
2022/02/28 08:59:16;;;;;;;10.93;3.17;;;;;;;3.54;43.83;102423.23;1760183;81;26780;-58
2022/02/28 09:01:43;;;;;;;8.63;2.70;;;;;;;3.56;43.19;102418.73;1749823;80;25529;-58
2022/02/28 09:04:10;;;;;;;17.87;3.25;;;;;;;3.53;42.55;102422.81;1721307;82;27855;-58
2022/02/28 09:06:37;;;;;;;6.50;3.05;;;;;;;3.48;43.24;102424.77;1721236;82;25655;-58
2022/02/28 09:09:04;;;;;;;12.78;3.05;;;;;;;3.50;43.20;102427.37;1721409;83;25771;-57
2022/02/28 09:11:31;;;;;;;11.28;4.12;;;;;;;3.46;43.18;102427.92;1722836;82;26098;-57
2022/02/28 09:13:58;;;;;;;24.25;5.58;;;;;;;3.37;43.38;102423.75;1723280;82;25781;-57
2022/02/28 09:16:24;;;;;;;13.35;3.25;;;;;;;3.37;43.25;102428.22;1723038;83;27558;-57
2022/02/28 09:18:51;;;;;;;16.05;3.15;;;;;;;3.38;43.42;102426.83;1722723;82;25687;-57
2022/02/28 09:21:18;;;;;;;15.98;2.55;;;;;;;3.40;42.81;102425.00;1722662;82;25984;-59
2022/02/28 09:23:45;;;;;;;10.60;2.60;;;;;;;3.48;42.74;102420.77;1722946;82;26106;-58
2022/02/28 09:26:12;;;;;;;8.30;3.00;;;;;;;3.50;42.37;102418.91;1722823;82;25810;-59
2022/02/28 09:28:38;;;;;;;9.53;2.55;;;;;;;3.54;42.36;102422.38;1722984;82;27473;-59
2022/02/28 09:31:05;;;;;;;8.25;2.58;;;;;;;3.59;42.77;102421.75;1698284;83;25524;-58
2022/02/28 09:33:32;;;;;;;16.70;3.12;;;;;;;3.66;42.73;102416.63;1693912;84;25707;-58
2022/02/28 09:36:00;;;;;;;4.87;2.52;;;;;;;3.77;42.20;102410.94;1693930;84;26766;-58
2022/02/28 09:38:28;;;;;;;8.68;2.27;;;;;;;3.84;42.35;102411.16;1694614;83;25793;-59
2022/02/28 09:40:58;;;;;;;4.87;2.20;;;;;;;3.91;41.88;102402.48;1705003;84;28162;-59
2022/02/28 09:43:44;;;;;;;6.37;2.90;;;;;;;3.95;41.49;102400.13;1704781;84;26397;-59
2022/02/28 09:46:30;;;;;;;6.62;2.42;;;;;;;3.93;41.88;102404.64;1720312;82;25682;-59
2022/02/28 09:49:15;;;;;;;7.45;2.40;;;;;;;3.91;41.94;102405.14;1722287;83;26330;-58
2022/02/28 09:51:45;;;;;;;9.18;2.12;;;;;;;3.96;41.88;102401.88;1672699;83;25845;-58
2022/02/28 09:54:32;;;;;;;5.20;2.60;;;;;;;4.02;42.08;102398.99;1723334;83;27495;-58
2022/02/28 09:57:11;;;;;;;5.45;2.62;;;;;;;4.13;41.73;102400.41;1719061;83;25825;-57
2022/02/28 09:59:44;;;;;;;14.85;3.22;;;;;;;4.17;42.03;102401.59;1721347;83;25734;-57
2022/02/28 10:02:13;;;;;;;8.53;3.10;;;;;;;4.22;41.43;102404.09;1701652;83;26133;-57
2022/02/28 10:04:40;;;;;;;12.98;2.75;;;;;;;4.19;41.18;102393.08;1723152;82;25920;-57
2022/02/28 10:07:23;;;;;;;5.45;2.55;;;;;;;4.15;41.57;102395.44;1722844;83;26912;-58
2022/02/28 10:10:05;;;;;;;9.50;2.90;;;;;;;4.16;41.62;102396.32;1726265;81;25753;-58
2022/02/28 10:12:32;;;;;;;8.45;2.00;;;;;;;4.15;41.49;102391.91;1761070;81;26237;-58
2022/02/28 10:15:10;;;;;;;26.80;3.83;;;;;;;4.18;41.37;102398.00;1762134;81;26081;-57
2022/02/28 10:17:58;;;;;;;12.58;2.95;;;;;;;4.21;41.35;102398.34;1761113;81;25760;-57
2022/02/28 10:20:33;;;;;;;11.93;2.90;;;;;;;4.23;41.20;102385.84;1762116;81;27445;-57
2022/02/28 10:23:08;;;;;;;11.97;3.22;;;;;;;4.25;41.56;102385.78;1762558;81;25873;-58
2022/02/28 10:25:43;;;;;;;12.13;5.05;;;;;;;4.32;41.26;102392.17;1759551;81;25801;-57
2022/02/28 10:28:20;;;;;;;8.17;2.87;;;;;;;4.36;41.37;102396.93;1759700;81;27574;-59
2022/02/28 10:31:02;;;;;;;6.37;2.05;;;;;;;4.41;40.86;102384.77;1675377;81;25847;-57
2022/02/28 10:33:47;;;;;;;9.78;2.72;;;;;;;4.43;41.18;102384.26;1743899;82;29594;-57
2022/02/28 10:36:34;;;;;;;6.58;2.47;;;;;;;4.45;41.24;102380.61;1744000;82;25728;-59
2022/02/28 10:39:07;;;;;;;10.55;3.15;;;;;;;4.60;40.91;102372.95;1734907;81;25795;-57
2022/02/28 10:41:39;;;;;;;19.37;3.85;;;;;;;4.66;41.39;102374.93;1710016;83;26225;-58
2022/02/28 10:44:11;;;;;;;;;;;;;;;4.81;40.83;102368.59;1713022;83;25833;-57
2022/02/28 10:46:43;;;;;;;18.75;2.30;;;;;;;4.87;40.44;102368.38;1711895;83;28190;-58
2022/02/28 10:49:15;;;;;;;5.95;2.50;;;;;;;4.92;40.65;102361.05;1712468;82;25833;-58
2022/02/28 10:51:52;;;;;;;12.85;2.98;;;;;;;5.12;39.77;102359.39;1711706;83;25720;-57
2022/02/28 10:54:31;;;;;;;9.45;2.67;;;;;;;5.22;40.05;102360.77;1712850;83;26074;-58
2022/02/28 10:57:06;;;;;;;6.55;3.15;;;;;;;5.35;39.54;102354.91;1712500;82;25833;-58
2022/02/28 10:59:44;;;;;;;12.35;3.80;;;;;;;5.36;38.92;102347.30;1712311;83;27465;-57
2022/02/28 11:02:26;;;;;;;4.78;2.40;;;;;;;5.32;38.64;102347.91;1712084;83;25796;-58
2022/02/28 11:05:16;;;;;;;10.00;2.42;;;;;;;5.31;38.76;102346.16;1712019;82;25777;-58
2022/02/28 11:07:49;;;;;;;6.15;2.42;;;;;;;5.35;39.11;102338.89;1712561;82;26512;-58
2022/02/28 11:10:19;;;;;;;8.53;2.83;;;;;;;5.44;38.46;102339.84;1710561;82;25742;-58
2022/02/28 11:12:48;;;;;;;4.40;1.82;;;;;;;5.47;38.46;102335.25;1700852;84;28026;-59
2022/02/28 11:15:21;;;;;;;6.22;2.25;;;;;;;5.59;38.24;102331.66;1707514;83;25805;-57
2022/02/28 11:17:51;;;;;;;8.85;2.40;;;;;;;5.88;37.95;102329.06;1707259;83;26569;-57
2022/02/28 11:20:21;;;;;;;10.10;3.17;;;;;;;5.99;37.57;102325.97;1757792;81;26152;-58
2022/02/28 11:22:50;;;;;;;6.08;1.92;;;;;;;6.10;37.42;102322.81;1757973;81;25717;-58
2022/02/28 11:25:21;;;;;;;10.23;2.12;;;;;;;6.15;37.21;102327.95;1758444;81;27529;-58
2022/02/28 11:27:50;;;;;;;11.83;2.60;;;;;;;6.23;37.39;102315.96;1757774;80;25751;-58
2022/02/28 11:30:23;;;;;;;3.47;1.95;;;;;;;6.23;37.50;102318.63;1749294;81;25749;-58
2022/02/28 11:33:04;;;;;;;8.78;2.20;;;;;;;6.28;36.93;102318.91;1740186;81;26456;-57
2022/02/28 11:35:50;;;;;;;5.45;1.60;;;;;;;6.24;36.87;102309.69;1741384;81;25490;-57